sensor_id;sensor_type;location;lat;lon;timestamp;P1;durP1;ratioP1;P2;durP2;ratioP2
72115;SDS011;59991;52.140;5.428;2024-02-28T00:00:22;39.13;;;24.83;;
72115;SDS011;59991;52.140;5.428;2024-02-28T00:00:54;43.08;;;22.70;;
72115;SDS011;59991;52.140;5.428;2024-02-28T00:01:26;44.50;;;25.33;;
72115;SDS011;59991;52.140;5.428;2024-02-28T00:01:57;42.92;;;24.85;;
72115;SDS011;59991;52.140;5.428;2024-02-28T00:02:29;43.20;;;24.42;;
72115;SDS011;59991;52.140;5.428;2024-02-28T00:03:01;42.08;;;23.85;;
72115;SDS011;59991;52.140;5.428;2024-02-28T00:03:33;44.78;;;23.30;;
72115;SDS011;59991;52.140;5.428;2024-02-28T00:04:05;41.88;;;24.73;;
72115;SDS011;59991;52.140;5.428;2024-02-28T00:04:37;43.45;;;24.55;;
72115;SDS011;59991;52.140;5.428;2024-02-28T00:05:11;40.22;;;23.70;;
72115;SDS011;59991;52.140;5.428;2024-02-28T00:05:43;43.17;;;24.63;;
72115;SDS011;59991;52.140;5.428;2024-02-28T00:06:16;45.15;;;24.67;;
72115;SDS011;59991;52.140;5.428;2024-02-28T00:06:48;38.17;;;23.37;;
72115;SDS011;59991;52.140;5.428;2024-02-28T00:09:00;38.72;;;23.60;;
72115;SDS011;59991;52.140;5.428;2024-02-28T00:09:31;40.08;;;23.70;;
72115;SDS011;59991;52.140;5.428;2024-02-28T00:10:03;39.83;;;23.15;;
72115;SDS011;59991;52.140;5.428;2024-02-28T00:10:35;41.83;;;24.30;;
72115;SDS011;59991;52.140;5.428;2024-02-28T00:11:06;42.25;;;25.02;;
72115;SDS011;59991;52.140;5.428;2024-02-28T00:11:42;42.20;;;23.80;;
72115;SDS011;59991;52.140;5.428;2024-02-28T00:12:15;41.42;;;24.27;;
72115;SDS011;59991;52.140;5.428;2024-02-28T00:12:47;39.87;;;23.90;;
72115;SDS011;59991;52.140;5.428;2024-02-28T00:13:19;40.97;;;23.70;;
72115;SDS011;59991;52.140;5.428;2024-02-28T00:13:53;38.70;;;23.55;;
72115;SDS011;59991;52.140;5.428;2024-02-28T00:14:24;48.03;;;25.85;;
72115;SDS011;59991;52.140;5.428;2024-02-28T00:14:56;41.75;;;23.67;;
72115;SDS011;59991;52.140;5.428;2024-02-28T00:15:27;43.92;;;25.70;;
72115;SDS011;59991;52.140;5.428;2024-02-28T00:15:59;46.92;;;26.10;;
72115;SDS011;59991;52.140;5.428;2024-02-28T00:16:30;52.92;;;26.85;;
72115;SDS011;59991;52.140;5.428;2024-02-28T00:17:02;40.80;;;23.38;;
72115;SDS011;59991;52.140;5.428;2024-02-28T00:17:33;42.05;;;24.08;;
72115;SDS011;59991;52.140;5.428;2024-02-28T00:18:06;43.27;;;24.43;;
72115;SDS011;59991;52.140;5.428;2024-02-28T00:18:37;41.40;;;24.92;;
72115;SDS011;59991;52.140;5.428;2024-02-28T00:19:09;44.20;;;24.05;;
72115;SDS011;59991;52.140;5.428;2024-02-28T00:19:43;39.22;;;22.23;;
72115;SDS011;59991;52.140;5.428;2024-02-28T00:20:14;38.95;;;24.50;;
72115;SDS011;59991;52.140;5.428;2024-02-28T00:20:46;41.03;;;23.08;;
72115;SDS011;59991;52.140;5.428;2024-02-28T00:21:36;39.30;;;23.25;;
72115;SDS011;59991;52.140;5.428;2024-02-28T00:22:08;42.15;;;24.15;;
72115;SDS011;59991;52.140;5.428;2024-02-28T00:22:40;39.67;;;23.88;;
72115;SDS011;59991;52.140;5.428;2024-02-28T00:23:30;41.88;;;23.27;;
72115;SDS011;59991;52.140;5.428;2024-02-28T00:24:02;43.50;;;23.63;;
72115;SDS011;59991;52.140;5.428;2024-02-28T00:24:34;40.70;;;23.05;;
72115;SDS011;59991;52.140;5.428;2024-02-28T00:25:05;40.03;;;22.80;;
72115;SDS011;59991;52.140;5.428;2024-02-28T00:25:55;37.70;;;23.25;;
72115;SDS011;59991;52.140;5.428;2024-02-28T00:26:27;41.20;;;23.45;;
72115;SDS011;59991;52.140;5.428;2024-02-28T00:27:02;45.03;;;24.80;;
72115;SDS011;59991;52.140;5.428;2024-02-28T00:27:33;40.47;;;23.15;;
72115;SDS011;59991;52.140;5.428;2024-02-28T00:28:06;39.28;;;24.05;;
72115;SDS011;59991;52.140;5.428;2024-02-28T00:28:37;41.72;;;25.50;;
72115;SDS011;59991;52.140;5.428;2024-02-28T00:29:09;40.00;;;23.58;;
72115;SDS011;59991;52.140;5.428;2024-02-28T00:29:41;46.13;;;26.00;;
72115;SDS011;59991;52.140;5.428;2024-02-28T00:30:12;46.60;;;25.63;;
72115;SDS011;59991;52.140;5.428;2024-02-28T00:30:44;38.72;;;23.08;;
72115;SDS011;59991;52.140;5.428;2024-02-28T00:31:16;40.80;;;24.92;;
72115;SDS011;59991;52.140;5.428;2024-02-28T00:31:48;42.42;;;25.48;;
72115;SDS011;59991;52.140;5.428;2024-02-28T00:32:19;42.30;;;24.55;;
72115;SDS011;59991;52.140;5.428;2024-02-28T00:32:51;40.72;;;24.25;;
72115;SDS011;59991;52.140;5.428;2024-02-28T00:33:22;41.33;;;24.42;;
72115;SDS011;59991;52.140;5.428;2024-02-28T00:33:54;44.08;;;24.70;;
72115;SDS011;59991;52.140;5.428;2024-02-28T00:34:25;42.05;;;25.38;;
72115;SDS011;59991;52.140;5.428;2024-02-28T00:34:57;46.20;;;25.77;;
72115;SDS011;59991;52.140;5.428;2024-02-28T00:35:32;43.45;;;24.90;;
72115;SDS011;59991;52.140;5.428;2024-02-28T00:36:04;48.30;;;25.35;;
72115;SDS011;59991;52.140;5.428;2024-02-28T00:36:36;40.17;;;24.10;;
72115;SDS011;59991;52.140;5.428;2024-02-28T00:37:25;45.40;;;24.23;;
72115;SDS011;59991;52.140;5.428;2024-02-28T00:37:56;41.60;;;24.75;;
72115;SDS011;59991;52.140;5.428;2024-02-28T00:38:28;45.85;;;24.98;;
72115;SDS011;59991;52.140;5.428;2024-02-28T00:38:59;40.25;;;23.73;;
72115;SDS011;59991;52.140;5.428;2024-02-28T00:39:31;42.80;;;25.08;;
72115;SDS011;59991;52.140;5.428;2024-02-28T00:40:02;43.47;;;24.90;;
72115;SDS011;59991;52.140;5.428;2024-02-28T00:40:35;43.37;;;24.77;;
72115;SDS011;59991;52.140;5.428;2024-02-28T00:41:06;42.45;;;24.30;;
72115;SDS011;59991;52.140;5.428;2024-02-28T00:41:38;40.60;;;24.30;;
72115;SDS011;59991;52.140;5.428;2024-02-28T00:42:10;44.55;;;25.73;;
72115;SDS011;59991;52.140;5.428;2024-02-28T00:42:41;46.05;;;24.58;;
72115;SDS011;59991;52.140;5.428;2024-02-28T00:43:13;43.45;;;25.83;;
72115;SDS011;59991;52.140;5.428;2024-02-28T00:43:44;41.67;;;23.92;;
72115;SDS011;59991;52.140;5.428;2024-02-28T00:44:16;42.30;;;24.55;;
72115;SDS011;59991;52.140;5.428;2024-02-28T00:44:47;40.58;;;24.25;;
72115;SDS011;59991;52.140;5.428;2024-02-28T00:45:19;45.00;;;25.25;;
72115;SDS011;59991;52.140;5.428;2024-02-28T00:45:50;44.10;;;25.20;;
72115;SDS011;59991;52.140;5.428;2024-02-28T00:46:22;42.72;;;24.27;;
72115;SDS011;59991;52.140;5.428;2024-02-28T00:46:53;40.03;;;22.80;;
72115;SDS011;59991;52.140;5.428;2024-02-28T00:47:25;42.25;;;26.00;;
72115;SDS011;59991;52.140;5.428;2024-02-28T00:47:57;38.53;;;23.80;;
72115;SDS011;59991;52.140;5.428;2024-02-28T00:48:29;43.97;;;25.92;;
72115;SDS011;59991;52.140;5.428;2024-02-28T00:49:00;41.58;;;24.77;;
72115;SDS011;59991;52.140;5.428;2024-02-28T00:49:32;41.75;;;24.38;;
72115;SDS011;59991;52.140;5.428;2024-02-28T00:50:03;43.25;;;24.88;;
72115;SDS011;59991;52.140;5.428;2024-02-28T00:50:35;41.47;;;24.38;;
72115;SDS011;59991;52.140;5.428;2024-02-28T00:51:06;43.53;;;25.20;;
72115;SDS011;59991;52.140;5.428;2024-02-28T00:51:41;41.35;;;24.05;;
72115;SDS011;59991;52.140;5.428;2024-02-28T00:52:30;40.63;;;23.88;;
72115;SDS011;59991;52.140;5.428;2024-02-28T00:53:03;42.70;;;25.45;;
72115;SDS011;59991;52.140;5.428;2024-02-28T00:53:35;42.40;;;25.60;;
72115;SDS011;59991;52.140;5.428;2024-02-28T00:54:06;43.35;;;25.23;;
72115;SDS011;59991;52.140;5.428;2024-02-28T00:54:39;42.72;;;25.55;;
72115;SDS011;59991;52.140;5.428;2024-02-28T00:55:29;44.20;;;24.25;;
72115;SDS011;59991;52.140;5.428;2024-02-28T00:56:01;43.28;;;24.83;;
72115;SDS011;59991;52.140;5.428;2024-02-28T00:57:22;40.20;;;22.90;;
72115;SDS011;59991;52.140;5.428;2024-02-28T00:57:53;41.28;;;23.23;;
72115;SDS011;59991;52.140;5.428;2024-02-28T00:58:25;39.25;;;22.70;;
72115;SDS011;59991;52.140;5.428;2024-02-28T00:58:59;42.33;;;24.45;;
72115;SDS011;59991;52.140;5.428;2024-02-28T00:59:30;45.70;;;24.85;;
72115;SDS011;59991;52.140;5.428;2024-02-28T01:00:02;41.63;;;23.75;;
72115;SDS011;59991;52.140;5.428;2024-02-28T01:00:33;42.58;;;24.42;;
72115;SDS011;59991;52.140;5.428;2024-02-28T01:01:06;41.40;;;24.65;;
72115;SDS011;59991;52.140;5.428;2024-02-28T01:01:39;42.30;;;24.90;;
72115;SDS011;59991;52.140;5.428;2024-02-28T01:02:11;41.58;;;23.30;;
72115;SDS011;59991;52.140;5.428;2024-02-28T01:02:43;44.47;;;25.00;;
72115;SDS011;59991;52.140;5.428;2024-02-28T01:03:14;41.08;;;24.20;;
72115;SDS011;59991;52.140;5.428;2024-02-28T01:03:46;41.95;;;24.15;;
72115;SDS011;59991;52.140;5.428;2024-02-28T01:04:18;41.55;;;24.75;;
72115;SDS011;59991;52.140;5.428;2024-02-28T01:04:49;40.90;;;24.60;;
72115;SDS011;59991;52.140;5.428;2024-02-28T01:05:21;47.05;;;24.67;;
72115;SDS011;59991;52.140;5.428;2024-02-28T01:05:52;49.50;;;24.23;;
72115;SDS011;59991;52.140;5.428;2024-02-28T01:06:24;41.00;;;24.70;;
72115;SDS011;59991;52.140;5.428;2024-02-28T01:07:13;41.45;;;24.88;;
72115;SDS011;59991;52.140;5.428;2024-02-28T01:07:44;40.33;;;23.70;;
72115;SDS011;59991;52.140;5.428;2024-02-28T01:08:16;39.00;;;23.87;;
72115;SDS011;59991;52.140;5.428;2024-02-28T01:08:51;43.20;;;23.98;;
72115;SDS011;59991;52.140;5.428;2024-02-28T01:09:22;41.17;;;23.15;;
72115;SDS011;59991;52.140;5.428;2024-02-28T01:09:54;42.10;;;24.58;;
72115;SDS011;59991;52.140;5.428;2024-02-28T01:10:25;44.03;;;25.38;;
72115;SDS011;59991;52.140;5.428;2024-02-28T01:10:56;42.28;;;25.65;;
72115;SDS011;59991;52.140;5.428;2024-02-28T01:11:30;42.40;;;23.73;;
72115;SDS011;59991;52.140;5.428;2024-02-28T01:12:01;42.30;;;23.63;;
72115;SDS011;59991;52.140;5.428;2024-02-28T01:12:33;40.95;;;25.02;;
72115;SDS011;59991;52.140;5.428;2024-02-28T01:13:54;40.70;;;22.73;;
72115;SDS011;59991;52.140;5.428;2024-02-28T01:14:26;39.90;;;23.40;;
72115;SDS011;59991;52.140;5.428;2024-02-28T01:14:57;41.22;;;24.95;;
72115;SDS011;59991;52.140;5.428;2024-02-28T01:15:29;40.63;;;24.85;;
72115;SDS011;59991;52.140;5.428;2024-02-28T01:16:01;43.25;;;25.75;;
72115;SDS011;59991;52.140;5.428;2024-02-28T01:16:32;42.83;;;25.58;;
72115;SDS011;59991;52.140;5.428;2024-02-28T01:17:04;43.33;;;22.73;;
72115;SDS011;59991;52.140;5.428;2024-02-28T01:17:35;43.22;;;25.40;;
72115;SDS011;59991;52.140;5.428;2024-02-28T01:18:07;41.45;;;24.35;;
72115;SDS011;59991;52.140;5.428;2024-02-28T01:18:39;40.58;;;24.60;;
72115;SDS011;59991;52.140;5.428;2024-02-28T01:19:10;38.23;;;23.17;;
72115;SDS011;59991;52.140;5.428;2024-02-28T01:19:42;39.85;;;23.90;;
72115;SDS011;59991;52.140;5.428;2024-02-28T01:20:30;38.55;;;22.55;;
72115;SDS011;59991;52.140;5.428;2024-02-28T01:21:02;39.17;;;24.05;;
72115;SDS011;59991;52.140;5.428;2024-02-28T01:21:52;38.88;;;23.23;;
72115;SDS011;59991;52.140;5.428;2024-02-28T01:22:24;38.53;;;23.23;;
72115;SDS011;59991;52.140;5.428;2024-02-28T01:23:45;43.35;;;23.95;;
72115;SDS011;59991;52.140;5.428;2024-02-28T01:24:17;41.10;;;23.30;;
72115;SDS011;59991;52.140;5.428;2024-02-28T01:25:38;39.73;;;21.43;;
72115;SDS011;59991;52.140;5.428;2024-02-28T01:26:10;38.67;;;23.08;;
72115;SDS011;59991;52.140;5.428;2024-02-28T01:26:41;41.67;;;22.38;;
72115;SDS011;59991;52.140;5.428;2024-02-28T01:27:13;41.80;;;24.20;;
72115;SDS011;59991;52.140;5.428;2024-02-28T01:27:44;42.28;;;25.20;;
72115;SDS011;59991;52.140;5.428;2024-02-28T01:28:16;41.72;;;24.33;;
72115;SDS011;59991;52.140;5.428;2024-02-28T01:28:47;45.72;;;25.08;;
72115;SDS011;59991;52.140;5.428;2024-02-28T01:29:20;42.42;;;25.00;;
72115;SDS011;59991;52.140;5.428;2024-02-28T01:29:51;42.45;;;25.20;;
72115;SDS011;59991;52.140;5.428;2024-02-28T01:30:24;40.42;;;24.02;;
72115;SDS011;59991;52.140;5.428;2024-02-28T01:30:56;43.47;;;25.23;;
72115;SDS011;59991;52.140;5.428;2024-02-28T01:31:28;43.67;;;23.77;;
72115;SDS011;59991;52.140;5.428;2024-02-28T01:31:59;41.28;;;24.92;;
72115;SDS011;59991;52.140;5.428;2024-02-28T01:32:31;38.25;;;23.02;;
72115;SDS011;59991;52.140;5.428;2024-02-28T01:33:21;41.20;;;23.33;;
72115;SDS011;59991;52.140;5.428;2024-02-28T01:33:53;42.83;;;23.48;;
72115;SDS011;59991;52.140;5.428;2024-02-28T01:34:24;43.03;;;24.45;;
72115;SDS011;59991;52.140;5.428;2024-02-28T01:34:56;41.28;;;23.67;;
72115;SDS011;59991;52.140;5.428;2024-02-28T01:35:27;42.92;;;24.67;;
72115;SDS011;59991;52.140;5.428;2024-02-28T01:35:58;41.63;;;24.35;;
72115;SDS011;59991;52.140;5.428;2024-02-28T01:36:30;39.57;;;23.37;;
72115;SDS011;59991;52.140;5.428;2024-02-28T01:37:01;43.45;;;24.10;;
72115;SDS011;59991;52.140;5.428;2024-02-28T01:37:33;43.60;;;25.65;;
72115;SDS011;59991;52.140;5.428;2024-02-28T01:38:04;41.53;;;23.88;;
72115;SDS011;59991;52.140;5.428;2024-02-28T01:38:36;40.10;;;23.88;;
72115;SDS011;59991;52.140;5.428;2024-02-28T01:39:25;38.05;;;22.10;;
72115;SDS011;59991;52.140;5.428;2024-02-28T01:39:56;41.28;;;24.73;;
72115;SDS011;59991;52.140;5.428;2024-02-28T01:40:28;43.72;;;26.05;;
72115;SDS011;59991;52.140;5.428;2024-02-28T01:40:59;43.47;;;24.75;;
72115;SDS011;59991;52.140;5.428;2024-02-28T01:41:50;38.80;;;23.58;;
72115;SDS011;59991;52.140;5.428;2024-02-28T01:42:25;42.47;;;23.20;;
72115;SDS011;59991;52.140;5.428;2024-02-28T01:43:03;39.00;;;23.33;;
72115;SDS011;59991;52.140;5.428;2024-02-28T01:43:35;43.72;;;24.52;;
72115;SDS011;59991;52.140;5.428;2024-02-28T01:44:07;39.85;;;23.98;;
72115;SDS011;59991;52.140;5.428;2024-02-28T01:44:40;40.42;;;23.75;;
72115;SDS011;59991;52.140;5.428;2024-02-28T01:45:19;41.13;;;23.95;;
72115;SDS011;59991;52.140;5.428;2024-02-28T01:45:51;44.22;;;23.42;;
72115;SDS011;59991;52.140;5.428;2024-02-28T01:46:24;43.55;;;24.02;;
72115;SDS011;59991;52.140;5.428;2024-02-28T01:46:57;46.13;;;25.98;;
72115;SDS011;59991;52.140;5.428;2024-02-28T01:47:29;48.40;;;26.95;;
72115;SDS011;59991;52.140;5.428;2024-02-28T01:48:02;42.57;;;23.80;;
72115;SDS011;59991;52.140;5.428;2024-02-28T01:48:34;47.67;;;26.52;;
72115;SDS011;59991;52.140;5.428;2024-02-28T01:49:05;47.92;;;25.83;;
72115;SDS011;59991;52.140;5.428;2024-02-28T01:49:38;43.10;;;25.23;;
72115;SDS011;59991;52.140;5.428;2024-02-28T01:50:11;42.95;;;24.77;;
72115;SDS011;59991;52.140;5.428;2024-02-28T01:50:43;48.00;;;27.00;;
72115;SDS011;59991;52.140;5.428;2024-02-28T01:51:15;41.97;;;25.35;;
72115;SDS011;59991;52.140;5.428;2024-02-28T01:51:48;44.03;;;24.77;;
72115;SDS011;59991;52.140;5.428;2024-02-28T01:52:20;46.03;;;27.65;;
72115;SDS011;59991;52.140;5.428;2024-02-28T01:53:11;44.47;;;24.05;;
72115;SDS011;59991;52.140;5.428;2024-02-28T01:53:45;48.00;;;25.20;;
72115;SDS011;59991;52.140;5.428;2024-02-28T01:54:35;42.03;;;24.20;;
72115;SDS011;59991;52.140;5.428;2024-02-28T01:55:57;50.60;;;22.98;;
72115;SDS011;59991;52.140;5.428;2024-02-28T01:56:28;44.35;;;24.05;;
72115;SDS011;59991;52.140;5.428;2024-02-28T01:57:01;42.40;;;24.55;;
72115;SDS011;59991;52.140;5.428;2024-02-28T01:57:34;41.28;;;23.85;;
72115;SDS011;59991;52.140;5.428;2024-02-28T01:58:08;41.88;;;24.27;;
72115;SDS011;59991;52.140;5.428;2024-02-28T01:59:49;38.47;;;22.85;;
72115;SDS011;59991;52.140;5.428;2024-02-28T02:00:21;41.13;;;23.20;;
72115;SDS011;59991;52.140;5.428;2024-02-28T02:00:54;39.42;;;22.90;;
72115;SDS011;59991;52.140;5.428;2024-02-28T02:01:26;36.83;;;23.10;;
72115;SDS011;59991;52.140;5.428;2024-02-28T02:01:58;37.88;;;23.70;;
72115;SDS011;59991;52.140;5.428;2024-02-28T02:02:30;36.45;;;22.38;;
72115;SDS011;59991;52.140;5.428;2024-02-28T02:03:02;42.70;;;22.95;;
72115;SDS011;59991;52.140;5.428;2024-02-28T02:03:34;39.10;;;23.33;;
72115;SDS011;59991;52.140;5.428;2024-02-28T02:04:05;40.00;;;23.15;;
72115;SDS011;59991;52.140;5.428;2024-02-28T02:04:37;37.60;;;23.90;;
72115;SDS011;59991;52.140;5.428;2024-02-28T02:05:08;36.25;;;21.38;;
72115;SDS011;59991;52.140;5.428;2024-02-28T02:05:41;37.80;;;23.87;;
72115;SDS011;59991;52.140;5.428;2024-02-28T02:06:13;37.38;;;23.15;;
72115;SDS011;59991;52.140;5.428;2024-02-28T02:06:44;34.25;;;23.42;;
72115;SDS011;59991;52.140;5.428;2024-02-28T02:07:35;36.13;;;20.75;;
72115;SDS011;59991;52.140;5.428;2024-02-28T02:08:07;33.03;;;21.80;;
72115;SDS011;59991;52.140;5.428;2024-02-28T02:08:38;34.35;;;22.25;;
72115;SDS011;59991;52.140;5.428;2024-02-28T02:09:10;33.80;;;22.60;;
72115;SDS011;59991;52.140;5.428;2024-02-28T02:09:42;35.70;;;21.20;;
72115;SDS011;59991;52.140;5.428;2024-02-28T02:11:22;30.98;;;20.05;;
72115;SDS011;59991;52.140;5.428;2024-02-28T02:11:55;32.87;;;21.13;;
72115;SDS011;59991;52.140;5.428;2024-02-28T02:12:26;32.88;;;20.48;;
72115;SDS011;59991;52.140;5.428;2024-02-28T02:13:04;35.17;;;21.55;;
72115;SDS011;59991;52.140;5.428;2024-02-28T02:13:56;30.23;;;20.15;;
72115;SDS011;59991;52.140;5.428;2024-02-28T02:14:28;26.83;;;18.58;;
72115;SDS011;59991;52.140;5.428;2024-02-28T02:14:59;30.55;;;20.25;;
72115;SDS011;59991;52.140;5.428;2024-02-28T02:15:31;30.90;;;20.42;;
72115;SDS011;59991;52.140;5.428;2024-02-28T02:16:03;34.63;;;20.67;;
72115;SDS011;59991;52.140;5.428;2024-02-28T02:16:34;28.70;;;20.27;;
72115;SDS011;59991;52.140;5.428;2024-02-28T02:17:06;33.08;;;21.25;;
72115;SDS011;59991;52.140;5.428;2024-02-28T02:17:38;28.00;;;20.27;;
72115;SDS011;59991;52.140;5.428;2024-02-28T02:18:09;32.72;;;21.00;;
72115;SDS011;59991;52.140;5.428;2024-02-28T02:18:41;30.00;;;19.35;;
72115;SDS011;59991;52.140;5.428;2024-02-28T02:19:12;33.97;;;20.58;;
72115;SDS011;59991;52.140;5.428;2024-02-28T02:19:44;30.48;;;20.50;;
72115;SDS011;59991;52.140;5.428;2024-02-28T02:20:16;29.65;;;20.00;;
72115;SDS011;59991;52.140;5.428;2024-02-28T02:20:53;30.48;;;22.00;;
72115;SDS011;59991;52.140;5.428;2024-02-28T02:21:40;27.45;;;18.30;;
72115;SDS011;59991;52.140;5.428;2024-02-28T02:22:15;27.80;;;20.10;;
72115;SDS011;59991;52.140;5.428;2024-02-28T02:22:48;30.13;;;20.50;;
72115;SDS011;59991;52.140;5.428;2024-02-28T02:23:19;31.20;;;21.37;;
72115;SDS011;59991;52.140;5.428;2024-02-28T02:23:51;33.47;;;21.08;;
72115;SDS011;59991;52.140;5.428;2024-02-28T02:24:22;30.10;;;21.98;;
72115;SDS011;59991;52.140;5.428;2024-02-28T02:24:54;33.88;;;21.08;;
72115;SDS011;59991;52.140;5.428;2024-02-28T02:25:25;27.70;;;19.80;;
72115;SDS011;59991;52.140;5.428;2024-02-28T02:25:57;29.90;;;20.30;;
72115;SDS011;59991;52.140;5.428;2024-02-28T02:26:28;30.15;;;21.05;;
72115;SDS011;59991;52.140;5.428;2024-02-28T02:27:00;29.08;;;20.75;;
72115;SDS011;59991;52.140;5.428;2024-02-28T02:27:32;31.83;;;20.92;;
72115;SDS011;59991;52.140;5.428;2024-02-28T02:28:03;26.88;;;19.55;;
72115;SDS011;59991;52.140;5.428;2024-02-28T02:28:35;30.03;;;21.23;;
72115;SDS011;59991;52.140;5.428;2024-02-28T02:29:06;28.75;;;20.15;;
72115;SDS011;59991;52.140;5.428;2024-02-28T02:29:39;29.90;;;20.08;;
72115;SDS011;59991;52.140;5.428;2024-02-28T02:30:11;28.30;;;20.67;;
72115;SDS011;59991;52.140;5.428;2024-02-28T02:30:43;24.27;;;17.77;;
72115;SDS011;59991;52.140;5.428;2024-02-28T02:31:15;29.65;;;19.55;;
72115;SDS011;59991;52.140;5.428;2024-02-28T02:32:05;26.98;;;18.60;;
72115;SDS011;59991;52.140;5.428;2024-02-28T02:32:36;27.77;;;17.73;;
72115;SDS011;59991;52.140;5.428;2024-02-28T02:33:08;26.65;;;19.80;;
72115;SDS011;59991;52.140;5.428;2024-02-28T02:33:39;26.90;;;19.10;;
72115;SDS011;59991;52.140;5.428;2024-02-28T02:34:11;23.70;;;17.30;;
72115;SDS011;59991;52.140;5.428;2024-02-28T02:34:42;26.60;;;17.67;;
72115;SDS011;59991;52.140;5.428;2024-02-28T02:35:14;26.63;;;18.50;;
72115;SDS011;59991;52.140;5.428;2024-02-28T02:36:04;26.65;;;18.60;;
72115;SDS011;59991;52.140;5.428;2024-02-28T02:36:36;26.27;;;18.98;;
72115;SDS011;59991;52.140;5.428;2024-02-28T02:37:07;25.42;;;18.63;;
72115;SDS011;59991;52.140;5.428;2024-02-28T02:37:43;24.48;;;18.65;;
72115;SDS011;59991;52.140;5.428;2024-02-28T02:38:17;27.77;;;19.60;;
72115;SDS011;59991;52.140;5.428;2024-02-28T02:38:48;28.30;;;20.45;;
72115;SDS011;59991;52.140;5.428;2024-02-28T02:39:19;25.80;;;19.42;;
72115;SDS011;59991;52.140;5.428;2024-02-28T02:39:51;25.27;;;19.40;;
72115;SDS011;59991;52.140;5.428;2024-02-28T02:40:23;29.10;;;19.23;;
72115;SDS011;59991;52.140;5.428;2024-02-28T02:40:55;25.25;;;18.98;;
72115;SDS011;59991;52.140;5.428;2024-02-28T02:41:26;28.00;;;19.75;;
72115;SDS011;59991;52.140;5.428;2024-02-28T02:41:58;26.05;;;19.38;;
72115;SDS011;59991;52.140;5.428;2024-02-28T02:42:29;27.83;;;20.50;;
72115;SDS011;59991;52.140;5.428;2024-02-28T02:43:01;27.33;;;20.02;;
72115;SDS011;59991;52.140;5.428;2024-02-28T02:43:32;27.52;;;20.25;;
72115;SDS011;59991;52.140;5.428;2024-02-28T02:44:04;25.85;;;20.17;;
72115;SDS011;59991;52.140;5.428;2024-02-28T02:44:36;26.92;;;19.42;;
72115;SDS011;59991;52.140;5.428;2024-02-28T02:45:07;26.40;;;18.17;;
72115;SDS011;59991;52.140;5.428;2024-02-28T02:45:39;29.90;;;19.10;;
72115;SDS011;59991;52.140;5.428;2024-02-28T02:46:10;26.17;;;18.50;;
72115;SDS011;59991;52.140;5.428;2024-02-28T02:46:42;27.25;;;19.13;;
72115;SDS011;59991;52.140;5.428;2024-02-28T02:47:13;25.30;;;18.63;;
72115;SDS011;59991;52.140;5.428;2024-02-28T02:47:45;28.13;;;19.35;;
72115;SDS011;59991;52.140;5.428;2024-02-28T02:48:17;27.27;;;20.65;;
72115;SDS011;59991;52.140;5.428;2024-02-28T02:48:48;27.58;;;19.77;;
72115;SDS011;59991;52.140;5.428;2024-02-28T02:49:20;27.27;;;20.48;;
72115;SDS011;59991;52.140;5.428;2024-02-28T02:49:51;27.00;;;19.65;;
72115;SDS011;59991;52.140;5.428;2024-02-28T02:50:23;25.50;;;18.90;;
72115;SDS011;59991;52.140;5.428;2024-02-28T02:50:55;28.83;;;19.52;;
72115;SDS011;59991;52.140;5.428;2024-02-28T02:51:26;27.55;;;20.23;;
72115;SDS011;59991;52.140;5.428;2024-02-28T02:51:58;27.77;;;20.58;;
72115;SDS011;59991;52.140;5.428;2024-02-28T02:52:29;26.40;;;19.52;;
72115;SDS011;59991;52.140;5.428;2024-02-28T02:53:03;26.35;;;19.50;;
72115;SDS011;59991;52.140;5.428;2024-02-28T02:53:34;27.85;;;19.15;;
72115;SDS011;59991;52.140;5.428;2024-02-28T02:54:06;27.45;;;19.38;;
72115;SDS011;59991;52.140;5.428;2024-02-28T02:54:37;27.13;;;19.27;;
72115;SDS011;59991;52.140;5.428;2024-02-28T02:55:09;25.73;;;19.20;;
72115;SDS011;59991;52.140;5.428;2024-02-28T02:55:41;28.30;;;19.17;;
72115;SDS011;59991;52.140;5.428;2024-02-28T02:56:12;27.90;;;19.10;;
72115;SDS011;59991;52.140;5.428;2024-02-28T02:56:43;26.70;;;20.38;;
72115;SDS011;59991;52.140;5.428;2024-02-28T02:57:15;27.30;;;20.30;;
72115;SDS011;59991;52.140;5.428;2024-02-28T02:58:05;26.95;;;19.65;;
72115;SDS011;59991;52.140;5.428;2024-02-28T02:58:36;28.27;;;19.55;;
72115;SDS011;59991;52.140;5.428;2024-02-28T02:59:09;28.75;;;18.75;;
72115;SDS011;59991;52.140;5.428;2024-02-28T02:59:42;26.80;;;19.67;;
72115;SDS011;59991;52.140;5.428;2024-02-28T03:00:13;28.15;;;19.73;;
72115;SDS011;59991;52.140;5.428;2024-02-28T03:00:45;27.17;;;19.73;;
72115;SDS011;59991;52.140;5.428;2024-02-28T03:01:16;28.60;;;20.27;;
72115;SDS011;59991;52.140;5.428;2024-02-28T03:01:49;27.55;;;19.67;;
72115;SDS011;59991;52.140;5.428;2024-02-28T03:02:21;28.50;;;20.27;;
72115;SDS011;59991;52.140;5.428;2024-02-28T03:02:52;30.20;;;20.52;;
72115;SDS011;59991;52.140;5.428;2024-02-28T03:03:24;26.95;;;18.60;;
72115;SDS011;59991;52.140;5.428;2024-02-28T03:03:55;27.15;;;18.55;;
72115;SDS011;59991;52.140;5.428;2024-02-28T03:04:27;27.95;;;20.17;;
72115;SDS011;59991;52.140;5.428;2024-02-28T03:05:16;24.80;;;18.15;;
72115;SDS011;59991;52.140;5.428;2024-02-28T03:05:47;25.63;;;17.73;;
72115;SDS011;59991;52.140;5.428;2024-02-28T03:06:19;23.60;;;17.55;;
72115;SDS011;59991;52.140;5.428;2024-02-28T03:06:50;25.97;;;18.47;;
72115;SDS011;59991;52.140;5.428;2024-02-28T03:07:22;27.65;;;19.92;;
72115;SDS011;59991;52.140;5.428;2024-02-28T03:07:53;25.50;;;19.00;;
72115;SDS011;59991;52.140;5.428;2024-02-28T03:08:25;27.48;;;19.67;;
72115;SDS011;59991;52.140;5.428;2024-02-28T03:08:56;27.95;;;19.88;;
72115;SDS011;59991;52.140;5.428;2024-02-28T03:09:28;28.08;;;19.48;;
72115;SDS011;59991;52.140;5.428;2024-02-28T03:09:59;27.30;;;19.48;;
72115;SDS011;59991;52.140;5.428;2024-02-28T03:10:31;27.98;;;19.58;;
72115;SDS011;59991;52.140;5.428;2024-02-28T03:11:02;28.83;;;19.45;;
72115;SDS011;59991;52.140;5.428;2024-02-28T03:11:35;29.17;;;18.83;;
72115;SDS011;59991;52.140;5.428;2024-02-28T03:12:07;26.93;;;18.97;;
72115;SDS011;59991;52.140;5.428;2024-02-28T03:12:39;24.48;;;19.02;;
72115;SDS011;59991;52.140;5.428;2024-02-28T03:13:10;26.00;;;19.60;;
72115;SDS011;59991;52.140;5.428;2024-02-28T03:13:42;27.73;;;19.52;;
72115;SDS011;59991;52.140;5.428;2024-02-28T03:14:13;25.45;;;18.80;;
72115;SDS011;59991;52.140;5.428;2024-02-28T03:14:45;26.90;;;18.77;;
72115;SDS011;59991;52.140;5.428;2024-02-28T03:15:34;25.33;;;18.67;;
72115;SDS011;59991;52.140;5.428;2024-02-28T03:16:05;24.60;;;18.33;;
72115;SDS011;59991;52.140;5.428;2024-02-28T03:16:43;27.42;;;18.40;;
72115;SDS011;59991;52.140;5.428;2024-02-28T03:17:15;25.02;;;18.55;;
72115;SDS011;59991;52.140;5.428;2024-02-28T03:17:47;27.40;;;19.13;;
72115;SDS011;59991;52.140;5.428;2024-02-28T03:18:36;26.55;;;18.52;;
72115;SDS011;59991;52.140;5.428;2024-02-28T03:19:09;26.25;;;18.05;;
72115;SDS011;59991;52.140;5.428;2024-02-28T03:19:42;24.98;;;19.00;;
72115;SDS011;59991;52.140;5.428;2024-02-28T03:20:13;28.08;;;19.40;;
72115;SDS011;59991;52.140;5.428;2024-02-28T03:20:45;25.77;;;19.02;;
72115;SDS011;59991;52.140;5.428;2024-02-28T03:21:17;26.05;;;18.33;;
72115;SDS011;59991;52.140;5.428;2024-02-28T03:21:48;27.67;;;20.08;;